.
WxDataArchive / Data Records for 2006-08-06
2006-08-05 August 2006 2006-08-07

Data Records for Sunday, 06 August 2006

Time	Temp	Chill	HIndex	Humid	Dewpt	 Wind 	HiWind	WindDir	Rain 	Barom 
-----	----	-----	------	-----	-----	------	------	-------	-----	----- 
00:00	70.1	70.1	70.1	77	62.5	1	3	68	0.00	30.060 
00:05	69.9	69.9	69.9	77	62.3	1	4	90	0.00	30.060 
00:10	69.8	69.8	69.8	77	62.3	1	3	90	0.00	30.060 
00:15	69.6	69.6	69.6	77	62.1	1	3	90	0.00	30.060 
00:20	69.6	69.6	69.6	78	62.4	1	4	90	0.00	30.060 
00:25	69.4	69.4	69.4	78	62.2	1	3	90	0.00	30.060 
00:30	69.3	69.3	69.3	79	62.5	0	2	90	0.00	30.061 
00:35	69.1	69.1	69.1	79	62.3	0	1	90	0.00	30.061 
00:40	68.9	68.9	68.9	79	62.1	0	2	90	0.00	30.061 
00:45	68.8	68.8	68.8	79	62.0	1	3	90	0.00	30.062 
00:50	68.8	68.8	68.8	80	62.4	1	2	90	0.00	30.062 
00:55	68.6	68.6	68.6	80	62.2	1	2	90	0.00	30.062 
01:00	68.6	68.6	68.6	80	62.2	1	2	90	0.00	30.056 
01:05	68.4	68.4	68.4	80	62.0	0	2	90	0.00	30.056 
01:10	68.3	68.3	68.3	81	62.2	0	2	90	0.00	30.056 
01:15	68.3	68.3	68.3	81	62.2	0	2	90	0.00	30.052 
01:20	68.1	68.1	68.1	81	62.0	1	2	90	0.00	30.052 
01:25	67.9	67.9	67.9	81	61.8	1	2	90	0.00	30.052 
01:30	67.8	67.8	67.8	81	61.7	0	3	90	0.00	30.046 
01:35	67.6	67.6	67.6	82	61.9	0	2	90	0.00	30.046 
01:40	67.6	67.6	67.6	82	61.9	0	2	90	0.00	30.046 
01:45	67.4	67.4	67.4	83	62.0	0	1	90	0.00	30.046 
01:50	67.3	67.3	67.3	83	62.0	0	1	90	0.00	30.046 
01:55	67.1	67.1	67.1	83	61.8	0	1	90	0.00	30.046 
02:00	66.9	66.9	66.9	83	61.6	0	1	90	0.00	30.042 
02:05	66.8	66.8	66.8	84	61.8	0	0	---	0.00	30.042 
02:10	66.6	66.6	66.6	84	61.6	0	1	90	0.00	30.042 
02:15	66.4	66.4	66.4	84	61.4	0	0	---	0.00	30.047 
02:20	66.1	66.1	66.1	84	61.1	0	0	---	0.00	30.047 
02:25	66.0	66.0	66.0	85	61.4	0	0	---	0.00	30.047 
02:30	65.8	65.8	65.8	86	61.5	0	0	---	0.00	30.048 
02:35	65.6	65.6	65.6	86	61.3	0	0	---	0.00	30.048 
02:40	65.5	65.5	65.5	87	61.5	0	0	---	0.00	30.048 
02:45	65.3	65.3	65.3	87	61.3	0	0	---	0.00	30.045 
02:50	65.2	65.2	65.2	87	61.2	0	0	---	0.00	30.045 
02:55	65.2	65.2	65.2	87	61.2	0	0	---	0.00	30.045 
03:00	65.2	65.2	65.2	87	61.2	0	0	---	0.00	30.033 
03:05	65.3	65.3	65.3	86	61.0	0	0	---	0.00	30.033 
03:10	65.2	65.2	65.2	87	61.2	0	0	---	0.00	30.033 
03:15	65.0	65.0	65.0	87	61.0	0	0	---	0.00	30.032 
03:20	65.0	65.0	65.0	87	61.0	0	1	90	0.00	30.032 
03:25	65.0	65.0	65.0	87	61.0	0	1	90	0.00	30.032 
03:30	65.2	65.2	65.2	86	60.9	0	1	90	0.00	30.031 
03:35	65.2	65.2	65.2	86	60.9	0	1	90	0.00	30.031 
03:40	65.2	65.2	65.2	86	60.9	0	1	90	0.00	30.031 
03:45	65.2	65.2	65.2	86	60.9	0	1	90	0.00	30.025 
03:50	65.0	65.0	65.0	86	60.7	0	0	---	0.00	30.025 
03:55	65.0	65.0	65.0	86	60.7	0	0	---	0.00	30.025 
04:00	64.8	64.8	64.8	86	60.5	0	0	---	0.00	30.031 
04:05	64.7	64.7	64.7	87	60.7	0	0	---	0.00	30.031 
04:10	64.5	64.5	64.5	87	60.5	0	0	---	0.00	30.031 
04:15	64.3	64.3	64.3	88	60.7	0	0	---	0.00	30.033 
04:20	64.2	64.2	64.2	88	60.6	0	0	---	0.00	30.033 
04:25	64.0	64.0	64.0	88	60.4	0	0	---	0.00	30.033 
04:30	63.9	63.9	63.9	88	60.3	0	0	---	0.00	30.031 
04:35	63.9	63.9	63.9	89	60.6	0	0	---	0.00	30.031 
04:40	63.9	63.9	63.9	88	60.3	0	1	90	0.00	30.031 
04:45	63.9	63.9	63.9	88	60.3	0	1	90	0.00	30.025 
04:50	63.9	63.9	63.9	88	60.3	0	0	---	0.00	30.025 
04:55	63.7	63.7	63.7	88	60.1	0	0	---	0.00	30.025 
05:00	63.7	63.7	63.7	88	60.1	0	0	---	0.00	30.022 
05:05	63.5	63.5	63.5	89	60.2	0	0	---	0.00	30.022 
05:10	63.4	63.4	63.4	89	60.1	0	0	---	0.00	30.022 
05:15	63.2	63.2	63.2	89	59.9	0	0	---	0.00	30.022 
05:20	63.2	63.2	63.2	90	60.2	0	0	---	0.00	30.022 
05:25	63.1	63.1	63.1	90	60.1	0	0	---	0.00	30.022 
05:30	62.9	62.9	62.9	90	59.9	0	0	---	0.00	30.026 
05:35	62.9	62.9	62.9	91	60.2	0	0	---	0.00	30.026 
05:40	62.9	62.9	62.9	91	60.2	0	1	90	0.00	30.026 
05:45	62.7	62.7	62.7	91	60.0	0	0	---	0.00	30.023 
05:50	62.7	62.7	62.7	91	60.0	0	0	---	0.00	30.023 
05:55	62.9	62.9	62.9	90	59.9	0	1	90	0.00	30.023 
06:00	63.1	63.1	63.1	89	59.8	0	1	90	0.00	30.022 
06:05	63.1	63.1	63.1	89	59.8	0	1	90	0.00	30.022 
06:10	63.2	63.2	63.2	89	59.9	0	2	90	0.00	30.022 
06:15	63.2	63.2	63.2	88	59.6	0	2	90	0.00	30.017 
06:20	63.4	63.4	63.4	88	59.8	0	2	90	0.00	30.017 
06:25	63.4	63.4	63.4	88	59.8	0	2	90	0.00	30.017 
06:30	63.4	63.4	63.4	88	59.8	0	1	90	0.00	30.008 
06:35	63.4	63.4	63.4	88	59.8	0	1	90	0.00	30.008 
06:40	63.2	63.2	63.2	88	59.6	0	1	90	0.00	30.008 
06:45	63.2	63.2	63.2	88	59.6	0	1	90	0.00	30.005 
06:50	63.2	63.2	63.2	88	59.6	0	1	90	0.00	30.005 
06:55	63.2	63.2	63.2	89	59.9	0	1	90	0.00	30.005 
07:00	63.1	63.1	63.1	89	59.8	0	1	90	0.00	30.004 
07:05	63.1	63.1	63.1	89	59.8	0	0	---	0.00	30.004 
07:10	63.2	63.2	63.2	89	59.9	0	1	90	0.00	30.004 
07:15	63.2	63.2	63.2	89	59.9	0	0	---	0.00	30.008 
07:20	63.2	63.2	63.2	89	59.9	0	1	90	0.00	30.008 
07:25	63.4	63.4	63.4	89	60.1	0	0	---	0.00	30.008 
07:30	63.7	63.7	63.7	89	60.4	0	1	90	0.00	30.005 
07:35	64.3	64.3	64.3	86	60.0	0	1	90	0.00	30.005 
07:40	65.2	65.2	65.2	84	60.2	0	2	90	0.00	30.005 
07:45	66.0	66.0	66.0	82	60.3	1	3	22	0.00	30.007 
07:50	66.6	66.6	66.6	80	60.2	0	2	22	0.00	30.007 
07:55	67.3	67.3	67.3	79	60.6	1	2	22	0.00	30.007 
08:00	67.9	67.9	67.9	78	60.8	0	1	22	0.00	30.009 
08:05	68.6	68.6	68.6	76	60.7	0	2	22	0.00	30.009 
08:10	69.3	69.3	69.3	75	61.0	0	2	22	0.00	30.009 
08:15	69.8	69.8	69.8	75	61.5	0	2	22	0.00	30.019 
08:20	69.9	69.9	69.9	74	61.2	1	3	22	0.00	30.019 
08:25	70.3	70.3	70.3	73	61.2	1	2	45	0.00	30.019 
08:30	70.6	70.6	70.6	72	61.1	1	2	45	0.00	30.025 
08:35	71.1	71.1	71.1	72	61.6	0	3	90	0.00	30.025 
08:40	71.8	71.8	71.8	71	61.9	1	2	90	0.00	30.025 
08:45	72.3	72.3	72.3	70	62.0	1	3	90	0.00	30.021 
08:50	72.7	72.7	72.7	69	61.9	1	2	90	0.00	30.021 
08:55	73.0	73.0	73.0	67	61.4	1	3	90	0.00	30.021 
09:00	73.5	73.5	73.5	69	62.7	1	2	90	0.00	30.026 
09:05	73.9	73.9	73.9	68	62.7	0	2	112	0.00	30.026 
09:10	74.4	74.4	74.4	67	62.7	0	2	112	0.00	30.026 
09:15	74.9	74.9	74.9	65	62.3	1	3	112	0.00	30.036 
09:20	75.4	75.4	77.4	65	62.8	1	3	112	0.00	30.036 
09:25	75.8	75.8	77.7	65	63.2	1	2	112	0.00	30.036 
09:30	76.3	76.3	78.1	65	63.6	0	2	112	0.00	30.043 
09:35	76.7	76.7	78.5	64	63.6	0	2	112	0.00	30.043 
09:40	76.7	76.7	78.5	64	63.6	1	2	112	0.00	30.043 
09:45	76.7	76.7	78.5	63	63.1	1	2	112	0.00	30.035 
09:50	76.8	76.8	78.6	63	63.2	1	3	112	0.00	30.035 
09:55	77.4	77.4	79.2	63	63.8	1	3	112	0.00	30.035 
10:00	77.7	77.7	79.4	62	63.6	1	3	112	0.00	30.031 
10:05	78.3	78.3	80.0	61	63.7	1	3	90	0.00	30.031 
10:10	78.6	78.6	80.3	60	63.5	1	3	90	0.00	30.031 
10:15	79.2	79.2	80.8	59	63.6	1	4	90	0.00	30.030 
10:20	79.6	79.6	81.3	60	64.5	2	3	90	0.00	30.030 
10:25	79.8	79.8	81.7	61	65.1	1	3	112	0.00	30.030 
10:30	80.3	80.3	81.9	58	64.2	1	4	112	0.00	30.030 
10:35	80.5	80.5	82.2	58	64.3	2	4	90	0.00	30.030 
10:40	80.5	80.5	82.3	59	64.8	2	4	90	0.00	30.030 
10:45	80.9	80.9	82.7	58	64.7	1	4	90	0.00	30.032 
10:50	81.2	81.2	83.2	59	65.5	1	4	90	0.00	30.032 
10:55	82.0	82.0	83.6	55	64.2	1	3	112	0.00	30.032 
11:00	82.6	82.6	84.0	53	63.7	1	2	90	0.00	30.030 
11:05	83.0	83.0	84.7	54	64.6	1	3	90	0.00	30.030 
11:10	83.4	83.4	85.2	54	65.0	1	3	90	0.00	30.030 
11:15	83.8	83.8	86.0	55	65.9	1	4	112	0.00	30.031 
11:20	83.6	83.6	85.0	52	64.1	2	3	90	0.00	30.031 
11:25	83.4	83.4	85.4	55	65.5	2	4	90	0.00	30.031 
11:30	83.2	83.2	84.9	54	64.8	2	7	68	0.00	30.030 
11:35	83.2	83.2	84.5	52	63.7	1	4	90	0.00	30.030 
11:40	83.6	83.6	85.0	52	64.1	1	4	158	0.00	30.030 
11:45	84.0	84.0	85.6	52	64.4	1	3	90	0.00	30.029 
11:50	83.6	83.6	85.2	53	64.6	1	3	270	0.00	30.029 
11:55	83.6	83.6	85.0	52	64.1	1	4	248	0.00	30.029 
12:00	84.1	84.1	85.5	51	64.0	1	3	90	0.00	30.028 
12:05	84.7	84.7	85.8	49	63.4	1	3	90	0.00	30.028 
12:10	84.7	84.7	86.8	53	65.6	2	4	112	0.00	30.028 
12:15	84.9	84.9	85.8	48	63.0	2	4	90	0.00	30.029 
12:20	85.3	85.3	86.1	47	62.8	1	3	248	0.00	30.029 
12:25	85.5	85.5	85.9	45	61.7	1	4	270	0.00	30.029 
12:30	86.1	86.1	86.5	44	61.6	0	2	248	0.00	30.028 
12:35	86.1	86.1	86.2	43	61.0	2	3	112	0.00	30.028 
12:40	85.5	85.5	85.9	45	61.7	2	4	112	0.00	30.028 
12:45	85.5	85.5	85.7	44	61.1	1	3	112	0.00	30.019 
12:50	85.9	85.9	86.9	47	63.3	1	3	270	0.00	30.019 
12:55	85.7	85.7	86.0	44	61.2	1	3	270	0.00	30.019 
13:00	86.1	86.1	86.7	45	62.2	0	2	248	0.00	30.019 
13:05	87.0	87.0	87.4	43	61.8	1	3	248	0.00	30.019 
13:10	87.6	87.6	88.2	43	62.3	0	2	248	0.00	30.019 
13:15	87.6	87.6	88.2	43	62.3	0	2	248	0.00	30.027 
13:20	87.0	87.0	86.6	40	59.7	2	3	270	0.00	30.027 
13:25	86.7	86.7	86.7	42	60.8	1	3	248	0.00	30.027 
13:30	87.2	87.2	86.4	38	58.5	1	3	248	0.00	30.028 
13:35	87.4	87.4	86.9	39	59.4	0	2	135	0.00	30.028 
13:40	87.4	87.4	86.9	39	59.4	1	3	270	0.00	30.028 
13:45	87.0	87.0	86.6	40	59.7	1	2	270	0.00	30.024 
13:50	86.7	86.7	87.5	45	62.8	0	2	270	0.00	30.024 
13:55	86.3	86.3	86.0	41	59.8	1	4	248	0.00	30.024 
14:00	85.9	85.9	85.5	41	59.4	0	2	248	0.00	30.029 
14:05	85.5	85.5	85.1	41	59.1	1	3	270	0.00	30.029 
14:10	85.3	85.3	84.7	40	58.2	1	2	315	0.00	30.029 
14:15	85.3	85.3	84.8	41	58.9	1	2	315	0.00	30.033 
14:20	85.3	85.3	84.8	41	58.9	1	3	315	0.00	30.033 
14:25	85.5	85.5	85.5	43	60.4	1	2	315	0.00	30.033 
14:30	85.5	85.5	84.9	40	58.4	0	1	315	0.00	30.035 
14:35	85.5	85.5	85.5	43	60.4	1	2	315	0.00	30.035 
14:40	85.5	85.5	85.5	43	60.4	1	2	315	0.00	30.035 
14:45	85.7	85.7	85.3	41	59.3	0	1	315	0.00	30.032 
14:50	85.7	85.7	86.2	45	61.9	0	2	315	0.00	30.032 
14:55	86.1	86.1	86.2	43	61.0	0	2	315	0.00	30.032 
15:00	87.0	87.0	86.6	40	59.7	1	4	270	0.00	30.024 
15:05	87.2	87.2	86.0	36	57.0	1	4	270	0.00	30.024 
15:10	87.0	87.0	85.8	36	56.8	1	3	315	0.00	30.024 
15:15	86.5	86.5	85.2	36	56.3	1	3	270	0.00	30.018 
15:20	86.1	86.1	85.4	39	58.2	0	2	270	0.00	30.018 
15:25	85.7	85.7	84.4	36	55.6	0	1	270	0.00	30.018 
15:30	85.5	85.5	84.7	39	57.7	0	2	315	0.00	30.017 
15:35	85.9	85.9	85.5	41	59.4	0	2	315	0.00	30.017 
15:40	86.1	86.1	85.6	40	58.9	1	2	22	0.00	30.017 
15:45	86.1	86.1	86.2	43	61.0	0	1	22	0.00	30.011 
15:50	86.3	86.3	86.2	42	60.5	1	3	45	0.00	30.011 
15:55	86.7	86.7	86.5	41	60.1	1	3	270	0.00	30.011 
16:00	87.0	87.0	86.6	40	59.7	0	2	270	0.00	30.000 
16:05	86.7	86.7	85.6	37	57.3	0	1	270	0.00	30.000 
16:10	86.5	86.5	85.6	38	57.8	0	2	270	0.00	30.000 
16:15	86.5	86.5	85.8	39	58.6	1	2	270	0.00	29.999 
16:20	86.5	86.5	85.8	39	58.6	0	2	270	0.00	29.999 
16:25	86.5	86.5	85.6	38	57.8	0	2	270	0.00	29.999 
16:30	87.0	87.0	86.6	40	59.7	1	2	270	0.00	29.988 
16:35	87.0	87.0	86.2	38	58.3	1	3	270	0.00	29.988 
16:40	86.7	86.7	86.5	41	60.1	0	1	270	0.00	29.988 
16:45	86.5	86.5	86.3	41	60.0	0	2	270	0.00	29.985 
16:50	86.5	86.5	86.5	42	60.6	0	2	270	0.00	29.985 
16:55	86.5	86.5	86.7	43	61.3	1	3	270	0.00	29.985 
17:00	86.7	86.7	87.0	43	61.5	0	2	270	0.00	29.982 
17:05	87.0	87.0	87.4	43	61.8	0	1	270	0.00	29.982 
17:10	87.4	87.4	87.9	43	62.1	1	3	270	0.00	29.982 
17:15	87.2	87.2	86.9	40	59.9	1	4	270	0.00	29.970 
17:20	86.7	86.7	87.0	43	61.5	1	4	112	0.00	29.970 
17:25	86.3	86.3	86.7	44	61.8	1	3	112	0.00	29.970 
17:30	86.1	86.1	86.7	45	62.2	1	2	90	0.00	29.974 
17:35	85.7	85.7	86.0	44	61.2	1	3	90	0.00	29.974 
17:40	85.3	85.3	85.2	43	60.2	2	5	90	0.00	29.974 
17:45	84.9	84.9	85.2	45	61.2	1	3	112	0.00	29.957 
17:50	84.7	84.7	85.4	47	62.2	0	2	68	0.00	29.957 
17:55	84.5	84.5	85.3	48	62.6	1	2	22	0.00	29.957 
18:00	84.3	84.3	85.3	49	63.0	1	3	22	0.00	29.945 
18:05	84.0	84.0	85.1	50	63.3	1	2	248	0.00	29.945 
18:10	84.0	84.0	85.1	50	63.3	0	2	315	0.00	29.945 
18:15	83.8	83.8	85.1	51	63.7	1	3	45	0.00	29.941 
18:20	83.8	83.8	85.1	51	63.7	1	3	270	0.00	29.941 
18:25	83.8	83.8	85.5	53	64.8	0	2	270	0.00	29.941 
18:30	83.6	83.6	85.2	53	64.6	1	3	270	0.00	29.938 
18:35	83.6	83.6	85.5	54	65.2	1	4	90	0.00	29.938 
18:40	83.6	83.6	85.2	53	64.6	1	5	270	0.00	29.938 
18:45	83.6	83.6	85.2	53	64.6	2	5	248	0.00	29.931 
18:50	83.4	83.4	85.0	53	64.4	2	5	270	0.00	29.931 
18:55	83.2	83.2	84.5	52	63.7	3	7	270	0.00	29.931 
19:00	83.2	83.2	84.9	54	64.8	2	4	248	0.00	29.927 
19:05	83.2	83.2	84.5	52	63.7	2	7	248	0.00	29.927 
19:10	83.0	83.0	84.5	53	64.1	2	5	248	0.00	29.927 
19:15	82.6	82.6	84.1	54	64.2	2	5	248	0.00	29.923 
19:20	82.8	82.8	84.2	53	63.9	2	5	270	0.00	29.923 
19:25	82.8	82.8	84.2	53	63.9	1	3	270	0.00	29.923 
19:30	82.8	82.8	84.2	53	63.9	1	4	248	0.00	29.933 
19:35	82.8	82.8	84.4	54	64.4	1	4	248	0.00	29.933 
19:40	82.8	82.8	84.6	55	65.0	1	3	270	0.00	29.933 
19:45	82.6	82.6	84.3	55	64.8	1	3	292	0.00	29.936 
19:50	82.4	82.4	84.1	55	64.6	0	2	292	0.00	29.936 
19:55	82.2	82.2	84.0	56	64.9	0	1	292	0.00	29.936 
20:00	82.2	82.2	84.0	56	64.9	0	1	292	0.00	29.944 
20:05	82.2	82.2	84.2	57	65.4	0	2	270	0.00	29.944 
20:10	82.0	82.0	83.9	57	65.2	0	1	270	0.00	29.944 
20:15	82.0	82.0	84.1	58	65.7	0	1	270	0.00	29.949 
20:20	81.6	81.6	83.5	58	65.4	0	0	---	0.00	29.949 
20:25	81.4	81.4	83.3	58	65.2	0	0	---	0.00	29.949 
20:30	81.1	81.1	83.2	60	65.9	0	0	---	0.00	29.954 
20:35	80.9	80.9	82.9	60	65.7	0	0	---	0.00	29.954 
20:40	80.5	80.5	82.5	61	65.8	0	0	---	0.00	29.954 
20:45	80.3	80.3	82.4	62	66.1	0	0	---	0.00	29.959 
20:50	79.9	79.9	81.9	62	65.7	0	0	---	0.00	29.959 
20:55	79.6	79.6	81.5	62	65.4	0	0	---	0.00	29.959 
21:00	79.2	79.2	81.2	64	65.9	0	0	---	0.00	29.962 
21:05	78.8	78.8	80.8	65	66.0	0	0	---	0.00	29.962 
21:10	78.5	78.5	80.4	65	65.7	0	0	---	0.00	29.962 
21:15	78.1	78.1	80.0	67	66.2	0	0	---	0.00	29.965 
21:20	77.7	77.7	79.6	67	65.8	0	0	---	0.00	29.965 
21:25	77.4	77.4	79.2	68	66.0	0	0	---	0.00	29.965 
21:30	77.2	77.2	79.0	68	65.8	0	0	---	0.00	29.969 
21:35	76.8	76.8	78.5	70	66.3	0	0	---	0.00	29.969 
21:40	76.7	76.7	78.4	70	66.2	0	0	---	0.00	29.969 
21:45	76.5	76.5	78.2	71	66.4	0	0	---	0.00	29.982 
21:50	76.3	76.3	77.9	71	66.2	0	0	---	0.00	29.982 
21:55	76.1	76.1	77.7	72	66.4	0	0	---	0.00	29.982 
22:00	76.1	76.1	77.6	73	66.8	0	0	---	0.00	29.991 
22:05	76.1	76.1	77.6	73	66.8	0	0	---	0.00	29.991 
22:10	76.1	76.1	77.6	73	66.8	0	0	---	0.00	29.991 
22:15	76.1	76.1	77.6	73	66.8	0	0	---	0.00	29.993 
22:20	76.1	76.1	77.5	74	67.2	0	0	---	0.00	29.993 
22:25	76.1	76.1	77.5	75	67.6	0	0	---	0.00	29.993 
22:30	76.1	76.1	77.5	74	67.2	0	0	---	0.00	29.994 
22:35	76.1	76.1	77.6	73	66.8	0	0	---	0.00	29.994 
22:40	76.1	76.1	77.5	74	67.2	0	0	---	0.00	29.994 
22:45	76.1	76.1	77.5	74	67.2	0	0	---	0.00	29.994 
22:50	76.1	76.1	77.5	74	67.2	0	0	---	0.00	29.994 
22:55	76.1	76.1	77.5	74	67.2	0	0	---	0.00	29.994 
23:00	76.0	76.0	77.4	74	67.1	0	0	---	0.00	29.993 
23:05	76.0	76.0	77.4	74	67.1	0	0	---	0.00	29.993 
23:10	76.0	76.0	77.4	75	67.5	0	0	---	0.00	29.993 
23:15	76.0	76.0	77.2	77	68.3	0	0	---	0.00	29.988 
23:20	75.8	75.8	77.0	77	68.1	0	0	---	0.00	29.988 
23:25	75.8	75.8	77.0	77	68.1	0	1	270	0.00	29.988 
23:30	75.8	75.8	77.0	77	68.1	0	1	270	0.00	29.989 
23:35	75.6	75.6	76.7	77	67.9	0	0	---	0.00	29.989 
23:40	75.6	75.6	76.7	77	67.9	0	0	---	0.00	29.989 
23:45	75.4	75.4	76.4	77	67.7	0	0	---	0.00	29.993 
23:50	75.4	75.4	76.3	78	68.0	0	0	---	0.00	29.993 
23:55	75.4	75.4	76.3	78	68.0	0	0	---	0.00	29.993 

CoCoRaHS
IN-AL-39
A2 Web Hosting
Creative Commons License
GoDaddy
Look for:

loaded 2017-12-12 15:03:06 • last modified 2010-11-18 10:43:29
Privacy PolicyDisclaimer
• wx.awcolley.com is powered by PmWiki v.2002016 •
• all content (unless otherwise noted) © 2017 A W Colley